• Join FlightAware (Why Join?)
  • Login
  • US Flag 
11:41PM EDT


 

Airport Tracker/Info


-or-


 

Live Flight TrackerFlight Track Log ✈ MAL8056 ✈ 25-Apr-2012 ✈ CYSB - CYTS

Flight Track Log - Related Links

Times and Time Zones

All times are in EDT time to prevent confusion due to time zone crossing. See the MAL8056 flight status page for this flight to view local times or setup timezone preferences in your user account.

Time Position Orientation Groundspeed Altitude Reporting Facility
EDT Latitude Longitude Course Direction KTS MPH feet Rate Location/Type
03:08PM 46.6500 -80.8000 341° North 100 115 2,700  Level Toronto Center
03:09PM 46.6833 -80.8167 360° North 130 150 3,800 1,080 Climbing Toronto Center
03:10PM 46.7167 -80.8167 360° North 130 150 4,900 1,020 Climbing Toronto Center
03:11PM 46.7500 -80.8167 360° North 130 150 5,900 540 Climbing Toronto Center
03:12PM 46.8000 -80.8167 326° Northwest 140 161 6,000 60 Climbing Toronto Center
03:13PM 46.8333 -80.8500 360° North 160 184 6,100  Climbing Toronto Center
03:14PM 46.8833 -80.8500 326° Northwest 160 184 6,100  Level Toronto Center
03:15PM 46.9167 -80.8833 360° North 160 184 6,100  Level Toronto Center
03:16PM 46.9667 -80.8833 347° North 160 184 6,100  Level Toronto Center
03:17PM 47.0167 -80.9000 360° North 160 184 6,100  Level Toronto Center
03:18PM 47.0667 -80.9000 306° West 160 184 6,100  Level Toronto Center
03:19PM 47.0833 -80.9333 360° North 160 184 6,100  Level Toronto Center
03:20PM 47.1333 -80.9333 341° North 160 184 6,100 -60 Level Toronto Center
03:21PM 47.1667 -80.9500 360° North 160 184 6,000  Descending Toronto Center
03:22PM 47.2167 -80.9500 360° North 160 184 6,100  Climbing Toronto Center
03:23PM 47.2667 -80.9500 326° Northwest 160 184 6,100  Level Toronto Center
03:24PM 47.3000 -80.9833 360° North 160 184 6,100 -60 Level Toronto Center
03:25PM 47.3500 -80.9833 326° Northwest 160 184 6,000  Descending Toronto Center
03:26PM 47.3833 -81.0167 360° North 160 184 6,100  Climbing Toronto Center
03:27PM 47.4333 -81.0167 347° North 160 184 6,100  Level Toronto Center
03:28PM 47.4833 -81.0333 360° North 160 184 6,100  Level Toronto Center
03:29PM 47.5167 -81.0333 347° North 160 184 6,100  Level Toronto Center
03:37PM 47.8260 -81.1433 349° North  Level FlightAware Approximate
03:38PM 47.8671 -81.1556 349° North  Level FlightAware Approximate
03:39PM 47.9083 -81.1678 349° North  Level FlightAware Approximate
03:40PM 47.9494 -81.1801 349° North  Level FlightAware Approximate
03:41PM 47.9906 -81.1924 349° North  Level FlightAware Approximate
03:42PM 48.0317 -81.2047 349° North  Level FlightAware Approximate
03:43PM 48.0728 -81.2170 349° North  Level FlightAware Approximate
03:44PM 48.1140 -81.2294 349° North  Level FlightAware Approximate
03:45PM 48.1551 -81.2418 349° North  Level FlightAware Approximate
03:46PM 48.1963 -81.2542 349° North  Level FlightAware Approximate
03:47PM 48.2374 -81.2666 351° North  Level FlightAware Approximate
03:48PM 48.2786 -81.2762 350° North  Level FlightAware Approximate
03:49PM 48.3199 -81.2873 348° North  Level FlightAware Approximate
03:50PM 48.3610 -81.3005 353° North  Level FlightAware Approximate
03:51PM 48.4022 -81.3076 347° North  Level FlightAware Approximate
03:52PM 48.4431 -81.3222 347° North  Level FlightAware Approximate
03:53PM 48.4837 -81.3367 347° North  Level FlightAware Approximate
03:54PM 48.5246 -81.3515 347° North  Level FlightAware Approximate